createdAt,value
2023-05-15T00:00:40.259Z,15.17
2023-05-15T00:03:06.787Z,12.05
2023-05-15T00:05:33.540Z,14.48
2023-05-15T00:08:00.014Z,15.30
2023-05-15T00:10:26.492Z,20.63
2023-05-15T00:12:52.951Z,10.97
2023-05-15T00:15:19.380Z,15.35
2023-05-15T00:17:45.842Z,13.05
2023-05-15T00:20:12.631Z,12.13
2023-05-15T00:22:39.094Z,15.65
2023-05-15T00:25:06.166Z,19.57
2023-05-15T00:27:32.849Z,17.73
2023-05-15T00:29:59.268Z,16.92
2023-05-15T00:32:25.695Z,15.48
2023-05-15T00:34:52.224Z,15.93
2023-05-15T00:37:18.600Z,16.07
2023-05-15T00:39:45.398Z,24.08
2023-05-15T00:42:12.126Z,19.83
2023-05-15T00:44:41.085Z,18.58
2023-05-15T00:47:07.837Z,20.05
2023-05-15T00:49:35.522Z,23.50
2023-05-15T00:52:03.591Z,19.65
2023-05-15T00:54:30.494Z,21.75
2023-05-15T00:56:58.099Z,15.07
2023-05-15T00:59:30.052Z,17.63
2023-05-15T01:01:56.548Z,18.57
2023-05-15T01:04:23.483Z,19.83
2023-05-15T01:06:53.522Z,20.25
2023-05-15T01:09:20.973Z,18.15
2023-05-15T01:11:50.963Z,20.42
2023-05-15T01:14:17.372Z,16.00
2023-05-15T01:16:43.836Z,23.35
2023-05-15T01:19:10.416Z,22.45
2023-05-15T01:21:37.417Z,23.58
2023-05-15T01:24:38.281Z,26.35
2023-05-15T01:27:17.712Z,21.33
2023-05-15T01:30:07.961Z,21.95
2023-05-15T01:32:44.974Z,21.40
2023-05-15T01:35:28.712Z,20.05
2023-05-15T01:38:04.567Z,20.60
2023-05-15T01:40:30.950Z,23.53
2023-05-15T01:43:07.798Z,19.17
2023-05-15T01:45:36.811Z,20.13
2023-05-15T01:48:08.512Z,21.25
2023-05-15T01:50:35.929Z,22.10
2023-05-15T01:53:03.791Z,24.17
2023-05-15T01:55:31.231Z,24.88
2023-05-15T01:58:01.230Z,23.67
2023-05-15T02:00:29.573Z,25.67
2023-05-15T02:02:57.649Z,23.98
2023-05-15T02:05:25.805Z,22.57
2023-05-15T02:07:52.993Z,23.27
2023-05-15T02:10:19.979Z,25.58
2023-05-15T02:12:46.571Z,25.83
2023-05-15T02:15:13.358Z,28.77
2023-05-15T02:17:40.183Z,30.33
2023-05-15T02:20:08.159Z,29.85
2023-05-15T02:22:34.654Z,26.33
2023-05-15T02:25:01.034Z,28.08
2023-05-15T02:27:29.388Z,32.72
2023-05-15T02:30:15.056Z,28.93
2023-05-15T02:32:54.287Z,38.60
2023-05-15T02:35:33.467Z,30.33
2023-05-15T02:38:03.366Z,26.65
2023-05-15T02:40:31.657Z,26.45
2023-05-15T02:42:59.454Z,27.73
2023-05-15T02:45:26.898Z,28.40
2023-05-15T02:47:54.264Z,23.77
2023-05-15T02:50:21.274Z,27.90
2023-05-15T02:52:47.702Z,25.95
2023-05-15T02:55:14.099Z,31.07
2023-05-15T02:57:40.583Z,27.60
2023-05-15T03:00:13.551Z,30.33
2023-05-15T03:02:39.961Z,33.42
2023-05-15T03:05:10.198Z,26.40
2023-05-15T03:07:36.801Z,27.43
2023-05-15T03:10:03.266Z,25.75
2023-05-15T03:12:29.649Z,29.15
2023-05-15T03:14:56.129Z,27.05
2023-05-15T03:17:22.508Z,29.60
2023-05-15T03:19:48.948Z,24.83
2023-05-15T03:22:15.330Z,29.67
2023-05-15T03:24:41.778Z,27.50
2023-05-15T03:27:08.216Z,31.70
2023-05-15T03:29:34.657Z,25.10
2023-05-15T03:32:01.072Z,24.20
2023-05-15T03:34:27.445Z,27.95
2023-05-15T03:36:53.908Z,26.23
2023-05-15T03:39:20.360Z,24.50
2023-05-15T03:41:47.137Z,29.05
2023-05-15T03:44:13.727Z,25.13
2023-05-15T03:46:40.276Z,22.20
2023-05-15T03:49:06.774Z,29.33
2023-05-15T03:51:33.219Z,28.73
2023-05-15T03:53:59.706Z,22.60
2023-05-15T03:56:26.352Z,22.87
2023-05-15T03:58:53.251Z,23.83
2023-05-15T04:01:19.883Z,20.58
2023-05-15T04:03:46.532Z,22.65
2023-05-15T04:06:12.953Z,24.23
2023-05-15T04:08:39.784Z,22.03
2023-05-15T04:11:07.397Z,18.90
2023-05-15T04:13:33.805Z,19.13
2023-05-15T04:16:00.264Z,20.65
2023-05-15T04:18:26.793Z,18.65
2023-05-15T04:20:53.341Z,21.33
2023-05-15T04:23:19.729Z,19.02
2023-05-15T04:25:46.888Z,22.92
2023-05-15T04:28:14.053Z,22.88
2023-05-15T04:30:40.708Z,20.00
2023-05-15T04:33:07.423Z,20.03
2023-05-15T04:35:34.223Z,18.13
2023-05-15T04:38:01.636Z,18.65
2023-05-15T04:40:28.325Z,15.45
2023-05-15T04:42:54.781Z,19.38
2023-05-15T04:45:21.554Z,18.87
2023-05-15T04:47:48.200Z,17.70
2023-05-15T04:50:14.758Z,17.77
2023-05-15T04:52:43.122Z,17.98
2023-05-15T04:55:09.942Z,19.58
2023-05-15T04:57:36.317Z,18.93
2023-05-15T05:00:05.630Z,25.67
2023-05-15T05:02:32.122Z,22.65
2023-05-15T05:04:58.519Z,22.48
2023-05-15T05:07:24.965Z,21.15
2023-05-15T05:09:51.451Z,17.57
2023-05-15T05:12:17.834Z,17.73
2023-05-15T05:14:44.835Z,20.38
2023-05-15T05:17:11.508Z,17.48
2023-05-15T05:19:37.946Z,19.15
2023-05-15T05:22:05.671Z,15.23
2023-05-15T05:24:32.460Z,15.00
2023-05-15T05:26:59.043Z,16.60
2023-05-15T05:29:26.056Z,19.55
2023-05-15T05:31:52.993Z,14.85
2023-05-15T05:34:20.338Z,16.57
2023-05-15T05:36:46.836Z,16.45
2023-05-15T05:39:13.262Z,16.00
2023-05-15T05:41:39.764Z,15.38
2023-05-15T05:44:06.231Z,15.77
2023-05-15T05:46:32.658Z,15.13
2023-05-15T05:48:59.356Z,13.43
2023-05-15T05:51:25.782Z,17.15
2023-05-15T05:53:52.218Z,12.90
2023-05-15T05:56:18.774Z,12.02
2023-05-15T05:58:45.232Z,15.03
2023-05-15T06:01:11.711Z,10.93
2023-05-15T06:03:39.284Z,11.48
2023-05-15T06:06:06.016Z,11.60
2023-05-15T06:08:32.466Z,15.45
2023-05-15T06:10:59.013Z,12.67
2023-05-15T06:13:25.487Z,16.80
2023-05-15T06:15:51.934Z,15.18
2023-05-15T06:18:18.332Z,26.00
2023-05-15T06:20:44.698Z,18.08
2023-05-15T06:23:11.088Z,17.70
2023-05-15T06:25:37.679Z,17.15
2023-05-15T06:28:04.591Z,18.08
2023-05-15T06:30:31.046Z,19.50
2023-05-15T06:32:57.498Z,16.48
2023-05-15T06:35:27.017Z,15.07
2023-05-15T06:37:53.472Z,18.50
2023-05-15T06:40:20.951Z,17.98
2023-05-15T06:42:47.353Z,16.63
2023-05-15T06:45:13.806Z,16.45
2023-05-15T06:47:40.516Z,20.30
2023-05-15T06:50:07.424Z,21.63
2023-05-15T06:52:33.840Z,15.20
2023-05-15T06:55:00.224Z,20.45
2023-05-15T06:57:26.738Z,14.30
2023-05-15T06:59:53.275Z,15.67
2023-05-15T07:02:19.702Z,14.30
2023-05-15T07:04:46.184Z,16.27
2023-05-15T07:07:12.598Z,15.75
2023-05-15T07:09:39.177Z,16.85
2023-05-15T07:12:05.859Z,13.10
2023-05-15T07:14:32.278Z,17.15
2023-05-15T07:16:58.847Z,14.77
2023-05-15T07:19:25.324Z,14.85
2023-05-15T07:21:51.812Z,14.18
2023-05-15T07:24:18.290Z,15.07
2023-05-15T07:26:57.594Z,12.65
2023-05-15T07:29:25.734Z,13.70
2023-05-15T07:31:52.225Z,16.02
2023-05-15T07:34:18.751Z,17.08
2023-05-15T07:36:45.250Z,14.67
2023-05-15T07:39:11.765Z,14.98
2023-05-15T07:41:38.269Z,14.35
2023-05-15T07:44:04.758Z,14.98
2023-05-15T07:46:31.307Z,17.42
2023-05-15T07:48:57.808Z,16.77
2023-05-15T07:51:24.329Z,17.63
2023-05-15T07:53:50.703Z,17.80
2023-05-15T07:56:17.312Z,13.85
2023-05-15T07:58:43.742Z,11.93
2023-05-15T08:01:10.270Z,13.60
2023-05-15T08:03:36.743Z,14.98
2023-05-15T08:06:03.278Z,14.57
2023-05-15T08:08:29.687Z,15.23
2023-05-15T08:10:56.142Z,14.00
2023-05-15T08:13:22.626Z,12.20
2023-05-15T08:15:49.126Z,14.68
2023-05-15T08:18:15.794Z,13.52
2023-05-15T08:20:42.210Z,11.43
2023-05-15T08:23:08.828Z,10.73
2023-05-15T08:25:35.206Z,14.77
2023-05-15T08:28:02.691Z,12.77
2023-05-15T08:30:29.305Z,12.60
2023-05-15T08:32:55.738Z,11.25
2023-05-15T08:35:22.119Z,13.32
2023-05-15T08:37:48.575Z,13.23
2023-05-15T08:40:15.595Z,11.73
2023-05-15T08:42:53.515Z,14.48
2023-05-15T08:45:20.496Z,11.77
2023-05-15T08:47:47.066Z,11.10
2023-05-15T08:50:15.563Z,11.37
2023-05-15T08:52:44.030Z,12.43
2023-05-15T08:55:11.114Z,9.88
2023-05-15T08:57:38.578Z,11.00
2023-05-15T09:00:09.125Z,14.57
2023-05-15T09:02:37.366Z,13.17
2023-05-15T09:05:05.137Z,11.45
2023-05-15T09:07:32.177Z,10.52
2023-05-15T09:09:59.687Z,10.75
2023-05-15T09:12:27.180Z,11.35
2023-05-15T09:15:10.689Z,9.70
2023-05-15T09:17:37.675Z,13.15
2023-05-15T09:20:08.318Z,10.18
2023-05-15T09:22:36.141Z,10.52
2023-05-15T09:25:04.103Z,11.57
2023-05-15T09:27:40.529Z,10.77
2023-05-15T09:30:10.753Z,10.68
2023-05-15T09:32:38.073Z,11.23
2023-05-15T09:35:04.846Z,11.35
2023-05-15T09:37:33.602Z,10.70
2023-05-15T09:40:11.212Z,11.90
2023-05-15T09:42:38.588Z,12.68
2023-05-15T09:45:06.343Z,12.23
2023-05-15T09:47:33.812Z,9.60
2023-05-15T09:50:00.528Z,12.40
2023-05-15T09:52:28.100Z,11.00
2023-05-15T09:54:54.554Z,16.42
2023-05-15T09:57:22.721Z,13.75
2023-05-15T09:59:49.728Z,12.63
2023-05-15T10:02:42.592Z,14.25
2023-05-15T10:05:11.675Z,14.47
2023-05-15T10:07:38.309Z,15.70
2023-05-15T10:10:05.327Z,18.33
2023-05-15T10:12:32.514Z,19.10
2023-05-15T10:15:00.843Z,17.40
2023-05-15T10:17:33.942Z,18.33
2023-05-15T10:20:01.913Z,16.88
2023-05-15T10:22:30.761Z,19.90
2023-05-15T10:25:03.199Z,20.20
2023-05-15T10:27:31.019Z,21.77
2023-05-15T10:29:58.626Z,21.57
2023-05-15T10:32:26.167Z,22.02
2023-05-15T10:34:54.297Z,22.48
2023-05-15T10:37:22.253Z,23.73
2023-05-15T10:39:49.864Z,25.20
2023-05-15T10:42:17.142Z,26.87
2023-05-15T10:44:43.534Z,28.15
2023-05-15T10:47:10.690Z,31.30
2023-05-15T10:49:37.289Z,30.42
2023-05-15T10:52:03.891Z,29.92
2023-05-15T10:54:30.486Z,31.43
2023-05-15T10:56:57.199Z,29.63
2023-05-15T10:59:31.534Z,30.95
2023-05-15T11:02:21.812Z,34.80
2023-05-15T11:04:48.373Z,31.10
2023-05-15T11:07:16.523Z,34.97
2023-05-15T11:09:42.944Z,38.20
2023-05-15T11:12:12.870Z,35.55
2023-05-15T11:14:44.694Z,32.38
2023-05-15T11:17:12.387Z,32.35
2023-05-15T11:19:40.568Z,33.37
2023-05-15T11:22:20.781Z,32.53
2023-05-15T11:25:09.192Z,28.70
2023-05-15T11:27:40.423Z,30.80
2023-05-15T11:30:20.572Z,27.60
2023-05-15T11:32:47.078Z,26.33
2023-05-15T11:35:17.869Z,25.25
2023-05-15T11:37:47.475Z,23.88
2023-05-15T11:40:18.888Z,25.65
2023-05-15T11:43:00.828Z,24.73
2023-05-15T11:45:31.963Z,22.70
2023-05-15T11:48:02.336Z,22.42
2023-05-15T11:50:31.040Z,20.77
2023-05-15T11:52:57.689Z,20.92
2023-05-15T11:55:25.339Z,24.42
2023-05-15T11:57:52.044Z,25.10
2023-05-15T12:00:19.054Z,19.20
2023-05-15T12:02:45.617Z,20.10
2023-05-15T12:05:12.134Z,18.33
2023-05-15T12:07:41.468Z,22.42
2023-05-15T12:10:11.007Z,17.30
2023-05-15T12:12:44.557Z,18.55
2023-05-15T12:15:12.344Z,19.75
2023-05-15T12:17:40.004Z,17.60
2023-05-15T12:20:09.526Z,16.25
2023-05-15T12:22:37.237Z,13.70
2023-05-15T12:25:04.913Z,13.75
2023-05-15T12:27:31.437Z,13.43
2023-05-15T12:29:58.346Z,12.15
2023-05-15T12:32:26.253Z,12.45
2023-05-15T12:34:52.743Z,11.10
2023-05-15T12:37:21.220Z,14.73
2023-05-15T12:39:52.181Z,14.43
2023-05-15T12:42:18.622Z,11.07
2023-05-15T12:44:45.035Z,13.15
2023-05-15T12:47:15.647Z,14.20
2023-05-15T12:49:42.180Z,12.52
2023-05-15T12:52:13.553Z,14.15
2023-05-15T12:54:44.029Z,12.07
2023-05-15T12:57:11.798Z,12.40
2023-05-15T12:59:39.770Z,10.20
2023-05-15T13:02:13.558Z,9.40
2023-05-15T13:04:40.357Z,10.52
2023-05-15T13:07:06.840Z,11.27
2023-05-15T13:09:35.212Z,9.40
2023-05-15T13:12:03.650Z,10.30
2023-05-15T13:14:33.054Z,13.13
2023-05-15T13:17:02.755Z,14.05
2023-05-15T13:19:29.176Z,14.65
2023-05-15T13:21:55.587Z,12.27
2023-05-15T13:24:22.394Z,11.90
2023-05-15T13:26:48.812Z,9.68
2023-05-15T13:29:15.171Z,12.10
2023-05-15T13:31:41.658Z,13.68
2023-05-15T13:34:08.104Z,13.40
2023-05-15T13:36:34.484Z,14.07
2023-05-15T13:39:01.033Z,14.23
2023-05-15T13:41:27.435Z,12.27
2023-05-15T13:43:53.796Z,11.82
2023-05-15T13:46:20.267Z,7.70
2023-05-15T13:48:46.746Z,5.27
2023-05-15T13:51:13.151Z,6.45
2023-05-15T13:53:39.609Z,5.40
2023-05-15T13:56:06.371Z,8.52
2023-05-15T13:58:33.212Z,10.48
2023-05-15T14:00:59.657Z,10.20
2023-05-15T14:03:26.150Z,10.52
2023-05-15T14:05:52.822Z,9.70
2023-05-15T14:08:19.529Z,9.48
2023-05-15T14:10:45.909Z,10.52
2023-05-15T14:13:12.259Z,7.67
2023-05-15T14:15:38.747Z,9.38
2023-05-15T14:18:05.455Z,8.00
2023-05-15T14:20:31.899Z,8.15
2023-05-15T14:22:58.337Z,7.00
2023-05-15T14:25:24.775Z,4.80
2023-05-15T14:27:51.448Z,5.13
2023-05-15T14:30:18.532Z,9.38
2023-05-15T14:32:45.041Z,5.53
2023-05-15T14:35:11.483Z,7.35
2023-05-15T14:37:37.922Z,5.93
2023-05-15T14:40:05.013Z,6.43
2023-05-15T14:42:31.694Z,5.78
2023-05-15T14:44:58.066Z,6.57
2023-05-15T14:47:25.336Z,6.00
2023-05-15T14:49:51.769Z,4.20
2023-05-15T14:52:18.416Z,5.10
2023-05-15T14:54:47.514Z,6.45
2023-05-15T14:57:20.604Z,6.00
2023-05-15T14:59:47.467Z,9.57
2023-05-15T15:02:13.870Z,6.57
2023-05-15T15:04:40.327Z,7.03
2023-05-15T15:07:11.330Z,7.57
2023-05-15T15:09:38.049Z,10.13
2023-05-15T15:12:05.549Z,10.32
2023-05-15T15:14:31.906Z,8.90
2023-05-15T15:16:58.276Z,9.90
2023-05-15T15:19:24.753Z,8.50
2023-05-15T15:21:51.462Z,4.72
2023-05-15T15:24:17.894Z,5.05
2023-05-15T15:26:44.282Z,6.93
2023-05-15T15:29:10.705Z,6.05
2023-05-15T15:31:37.119Z,6.85
2023-05-15T15:34:05.355Z,9.20
2023-05-15T15:36:32.488Z,6.70
2023-05-15T15:38:58.892Z,6.07
2023-05-15T15:41:25.333Z,6.30
2023-05-15T15:43:51.831Z,9.57
2023-05-15T15:46:18.454Z,8.23
2023-05-15T15:48:45.176Z,7.38
2023-05-15T15:51:11.723Z,8.53
2023-05-15T15:53:38.801Z,6.53
2023-05-15T15:56:06.505Z,9.15
2023-05-15T15:58:32.943Z,8.10
2023-05-15T16:00:59.668Z,4.78
2023-05-15T16:03:26.195Z,4.97
2023-05-15T16:05:52.838Z,7.90
2023-05-15T16:08:19.281Z,4.65
2023-05-15T16:10:45.710Z,4.22
2023-05-15T16:13:12.218Z,5.15
2023-05-15T16:15:38.774Z,4.93
2023-05-15T16:18:05.321Z,6.68
2023-05-15T16:20:33.575Z,5.55
2023-05-15T16:23:01.353Z,3.42
2023-05-15T16:25:27.857Z,6.05
2023-05-15T16:27:54.552Z,5.83
2023-05-15T16:30:20.930Z,5.65
2023-05-15T16:32:48.557Z,3.90
2023-05-15T16:35:15.549Z,4.43
2023-05-15T16:37:41.951Z,5.22
2023-05-15T16:40:08.694Z,3.90
2023-05-15T16:42:36.779Z,6.38
2023-05-15T16:45:04.803Z,7.55
2023-05-15T16:47:31.514Z,5.35
2023-05-15T16:49:57.999Z,6.38
2023-05-15T16:52:24.605Z,4.40
2023-05-15T16:54:51.302Z,6.47
2023-05-15T16:57:17.721Z,3.15
2023-05-15T16:59:44.450Z,2.17
2023-05-15T17:02:10.999Z,1.77
2023-05-15T17:04:37.828Z,4.67
2023-05-15T17:07:05.173Z,2.88
2023-05-15T17:09:32.643Z,4.13
2023-05-15T17:11:59.666Z,1.13
2023-05-15T17:14:26.620Z,1.75
2023-05-15T17:16:53.005Z,2.17
2023-05-15T17:19:19.510Z,1.60
2023-05-15T17:21:46.207Z,2.58
2023-05-15T17:24:13.561Z,3.38
2023-05-15T17:26:39.953Z,4.15
2023-05-15T17:29:06.289Z,5.27
2023-05-15T17:31:35.282Z,2.28
2023-05-15T17:34:01.713Z,2.88
2023-05-15T17:36:28.226Z,3.10
2023-05-15T17:38:54.593Z,3.65
2023-05-15T17:41:22.032Z,4.33
2023-05-15T17:43:49.336Z,6.95
2023-05-15T17:46:15.925Z,7.90
2023-05-15T17:48:42.390Z,4.13
2023-05-15T17:51:08.780Z,6.70
2023-05-15T17:53:35.251Z,4.23
2023-05-15T17:56:03.520Z,5.15
2023-05-15T17:58:30.397Z,4.32
2023-05-15T18:00:57.117Z,4.63
2023-05-15T18:03:23.691Z,2.88
2023-05-15T18:05:51.734Z,4.97
2023-05-15T18:08:18.393Z,9.38
2023-05-15T18:10:44.936Z,4.80
2023-05-15T18:13:11.407Z,6.40
2023-05-15T18:15:37.910Z,7.28
2023-05-15T18:18:05.002Z,6.53
2023-05-15T18:20:31.555Z,8.25
2023-05-15T18:22:57.980Z,6.18
2023-05-15T18:25:24.873Z,4.35
2023-05-15T18:27:51.429Z,5.45
2023-05-15T18:30:18.136Z,9.80
2023-05-15T18:32:44.796Z,8.27
2023-05-15T18:35:11.518Z,9.25
2023-05-15T18:37:37.904Z,13.65
2023-05-15T18:40:05.306Z,6.40
2023-05-15T18:42:33.668Z,10.97
2023-05-15T18:45:00.319Z,5.75
2023-05-15T18:47:26.917Z,7.90
2023-05-15T18:49:53.360Z,7.07
2023-05-15T18:52:21.273Z,4.95
2023-05-15T18:54:48.199Z,11.53
2023-05-15T18:57:19.042Z,5.88
2023-05-15T18:59:45.768Z,3.17
2023-05-15T19:02:12.471Z,3.10
2023-05-15T19:04:38.853Z,2.10
2023-05-15T19:07:05.813Z,9.30
2023-05-15T19:09:32.381Z,2.20
2023-05-15T19:12:02.641Z,3.80
2023-05-15T19:14:29.040Z,3.75
2023-05-15T19:16:55.713Z,2.45
2023-05-15T19:19:22.220Z,3.77
2023-05-15T19:21:50.355Z,3.03
2023-05-15T19:24:16.765Z,5.60
2023-05-15T19:26:43.138Z,4.85
2023-05-15T19:29:09.484Z,2.05
2023-05-15T19:31:37.322Z,0.80
2023-05-15T19:34:04.097Z,1.45
2023-05-15T19:36:31.395Z,5.13
2023-05-15T19:38:57.830Z,2.00
2023-05-15T19:41:24.259Z,1.40
2023-05-15T19:43:50.940Z,3.43
2023-05-15T19:46:18.277Z,1.23
2023-05-15T19:48:45.260Z,2.60
2023-05-15T19:51:12.088Z,1.90
2023-05-15T19:53:38.575Z,4.55
2023-05-15T19:56:05.807Z,5.03
2023-05-15T19:58:32.489Z,2.35
2023-05-15T20:00:59.138Z,2.83
2023-05-15T20:03:33.180Z,2.30
2023-05-15T20:06:01.251Z,5.35
2023-05-15T20:08:28.334Z,2.13
2023-05-15T20:10:54.974Z,3.70
2023-05-15T20:13:21.876Z,4.70
2023-05-15T20:15:54.618Z,5.75
2023-05-15T20:18:21.844Z,3.33
2023-05-15T20:20:48.240Z,3.37
2023-05-15T20:23:14.675Z,1.15
2023-05-15T20:25:41.562Z,2.30
2023-05-15T20:28:07.934Z,4.80
2023-05-15T20:30:34.365Z,6.40
2023-05-15T20:33:00.991Z,1.20
2023-05-15T20:35:27.937Z,2.38
2023-05-15T20:37:56.266Z,1.33
2023-05-15T20:40:24.767Z,1.77
2023-05-15T20:42:52.268Z,6.35
2023-05-15T20:45:19.246Z,2.63
2023-05-15T20:47:46.115Z,3.97
2023-05-15T20:50:12.554Z,4.88
2023-05-15T20:52:38.943Z,4.82
2023-05-15T20:55:17.270Z,4.32
2023-05-15T20:57:44.459Z,3.10
2023-05-15T21:00:12.354Z,2.90
2023-05-15T21:02:39.763Z,9.00
2023-05-15T21:05:06.760Z,3.97
2023-05-15T21:07:33.162Z,7.78
2023-05-15T21:09:59.592Z,3.13
2023-05-15T21:12:26.041Z,5.22
2023-05-15T21:14:52.489Z,2.97
2023-05-15T21:17:19.006Z,1.98
2023-05-15T21:19:48.235Z,9.73
2023-05-15T21:22:15.669Z,7.80
2023-05-15T21:24:42.099Z,3.08
2023-05-15T21:27:08.526Z,3.92
2023-05-15T21:29:36.686Z,3.97
2023-05-15T21:32:03.531Z,5.53
2023-05-15T21:34:30.155Z,6.63
2023-05-15T21:36:56.580Z,9.18
2023-05-15T21:39:22.950Z,5.95
2023-05-15T21:41:51.028Z,11.55
2023-05-15T21:44:17.442Z,5.25
2023-05-15T21:46:43.845Z,3.63
2023-05-15T21:49:10.690Z,4.20
2023-05-15T21:51:37.170Z,10.50
2023-05-15T21:54:04.345Z,7.88
2023-05-15T21:56:30.920Z,8.30
2023-05-15T21:58:57.320Z,5.00
2023-05-15T22:01:23.716Z,5.35
2023-05-15T22:03:50.625Z,11.85
2023-05-15T22:06:17.307Z,7.90
2023-05-15T22:08:43.809Z,6.78
2023-05-15T22:11:10.466Z,8.27
2023-05-15T22:13:36.818Z,5.68
2023-05-15T22:16:03.295Z,8.48
2023-05-15T22:18:29.725Z,5.70
2023-05-15T22:20:56.211Z,5.65
2023-05-15T22:23:22.751Z,11.53
2023-05-15T22:25:49.483Z,5.97
2023-05-15T22:28:16.343Z,6.57
2023-05-15T22:30:42.856Z,7.90
2023-05-15T22:33:09.336Z,8.63
2023-05-15T22:35:35.880Z,11.53
2023-05-15T22:38:02.258Z,13.43
2023-05-15T22:40:29.817Z,3.60
2023-05-15T22:42:56.204Z,8.15
2023-05-15T22:45:22.570Z,6.30
2023-05-15T22:47:49.410Z,7.33
2023-05-15T22:50:16.142Z,7.30
2023-05-15T22:52:42.521Z,8.23
2023-05-15T22:55:10.294Z,12.27
2023-05-15T22:57:36.754Z,5.43
2023-05-15T23:00:05.274Z,8.30
2023-05-15T23:02:31.695Z,5.35
2023-05-15T23:04:58.177Z,12.65
2023-05-15T23:07:24.613Z,9.68
2023-05-15T23:09:51.319Z,4.13
2023-05-15T23:12:17.980Z,6.43
2023-05-15T23:14:44.352Z,8.15
2023-05-15T23:17:10.879Z,7.43
2023-05-15T23:19:37.428Z,7.18
2023-05-15T23:22:03.870Z,5.38
2023-05-15T23:24:30.304Z,6.93
2023-05-15T23:26:56.681Z,4.63
2023-05-15T23:29:23.070Z,4.93
2023-05-15T23:31:49.716Z,6.45
2023-05-15T23:34:16.253Z,5.85
2023-05-15T23:36:42.717Z,8.37
2023-05-15T23:39:09.296Z,5.30
2023-05-15T23:41:36.435Z,6.45
2023-05-15T23:44:02.893Z,11.93
2023-05-15T23:46:29.345Z,7.30
2023-05-15T23:48:55.845Z,8.63
2023-05-15T23:51:22.262Z,10.50
2023-05-15T23:53:49.292Z,9.77
2023-05-15T23:56:15.837Z,2.60
2023-05-15T23:58:42.294Z,9.55
